KFLG

Flagstaff Pulliam Airport

Flagstaff, Arizona, USA
METAR KFLG 211257Z AUTO 00000KT 10SM CLR M16/M18 A2999 RMK AO2 SLP201 I1000 T11611183
Observed Flight Rules
Feb-21 @ 12:57 UTC (20 minutes ago) Visual Flight Rules
Wind Visibility Clouds
Calm 10 miles
  • Clear skies
Temperatures Readings
Current -16°C / 3°F
Dewpoint -18°C / -0°F
Humidity 85%
Altimeter 29.99" Hg
Pressure 1020.1 hPa
Elevation 2134
METAR KFLG 211257Z AUTO 00000KT 10SM CLR M16/M18 A2999 RMK AO2 SLP201 I1000 T11611183
Observed Flight Rules
Feb-21 @ 12:57 UTC
(20 minutes ago)
VFR
Wind Visibility
Calm 10 miles
Clouds
  • Clear skies
Temperature Dewpoint
-16°C / 3°F -18°C / -0°F
Humidity Altimeter Pressure
85% 29.99" Hg 1020.1 hPa